Terminal Aerodrome Forecast
Issued by NWS

Home | Current Version | Previous Version | Text Only | Print | Product List | Glossary On
Versions: 1 2 3 4 5 6 7 8 9 10 11 12 13 14 15 16 17 18
519
FTUS44 KLZK 171720
TAFLLQ
TAF
KLLQ 171720Z 1718/1818 23005KT P6SM VCTS SCT030CB
     FM180200 VRB04KT P6SM BKN250
     FM181000 VRB03KT 4SM BR SKC
     FM181400 31005KT P6SM SKC=

USA.gov is the U.S. government's official web portal to all federal, state and local government web resources and services.